sensor_id;sensor_type;location;lat;lon;timestamp;pressure;altitude;pressure_sealevel;temperature;humidity
31717;BME280;18301;51.076;17.046;2022-08-03T00:04:21;100368.81;;;20.43;63.52
31717;BME280;18301;51.076;17.046;2022-08-03T00:09:34;100377.03;;;20.43;63.55
31717;BME280;18301;51.076;17.046;2022-08-03T00:14:36;100371.63;;;20.35;64.18
31717;BME280;18301;51.076;17.046;2022-08-03T00:19:37;100374.38;;;20.27;64.53
31717;BME280;18301;51.076;17.046;2022-08-03T00:24:39;100375.78;;;20.15;64.92
31717;BME280;18301;51.076;17.046;2022-08-03T00:29:41;100365.53;;;20.09;65.18
31717;BME280;18301;51.076;17.046;2022-08-03T00:35:00;100379.94;;;19.94;65.76
31717;BME280;18301;51.076;17.046;2022-08-03T00:40:12;100379.97;;;19.86;66.31
31717;BME280;18301;51.076;17.046;2022-08-03T00:45:19;100378.09;;;19.78;66.75
31717;BME280;18301;51.076;17.046;2022-08-03T00:50:22;100369.72;;;19.72;67.21
31717;BME280;18301;51.076;17.046;2022-08-03T00:55:24;100368.88;;;19.71;67.66
31717;BME280;18301;51.076;17.046;2022-08-03T01:00:27;100363.56;;;19.70;67.79
31717;BME280;18301;51.076;17.046;2022-08-03T01:05:28;100362.19;;;19.74;68.06
31717;BME280;18301;51.076;17.046;2022-08-03T01:10:40;100367.50;;;19.67;67.93
31717;BME280;18301;51.076;17.046;2022-08-03T01:15:58;100362.50;;;19.63;68.42
31717;BME280;18301;51.076;17.046;2022-08-03T01:21:09;100364.75;;;19.59;68.26
31717;BME280;18301;51.076;17.046;2022-08-03T01:32:01;100358.09;;;19.37;69.57
31717;BME280;18301;51.076;17.046;2022-08-03T01:37:30;100354.81;;;19.17;69.97
31717;BME280;18301;51.076;17.046;2022-08-03T01:42:35;100357.03;;;19.05;70.67
31717;BME280;18301;51.076;17.046;2022-08-03T01:47:38;100352.56;;;18.96;70.97
31717;BME280;18301;51.076;17.046;2022-08-03T01:52:41;100352.75;;;18.95;71.24
31717;BME280;18301;51.076;17.046;2022-08-03T01:57:44;100351.38;;;18.82;72.26
31717;BME280;18301;51.076;17.046;2022-08-03T02:03:07;100352.94;;;18.85;72.25
31717;BME280;18301;51.076;17.046;2022-08-03T02:08:12;100340.25;;;18.76;72.53
31717;BME280;18301;51.076;17.046;2022-08-03T02:13:15;100332.66;;;18.61;73.23
31717;BME280;18301;51.076;17.046;2022-08-03T02:18:20;100336.44;;;18.60;73.19
31717;BME280;18301;51.076;17.046;2022-08-03T02:23:22;100326.84;;;18.56;73.64
31717;BME280;18301;51.076;17.046;2022-08-03T02:28:29;100331.97;;;18.51;73.97
31717;BME280;18301;51.076;17.046;2022-08-03T02:33:36;100327.88;;;18.55;74.11
31717;BME280;18301;51.076;17.046;2022-08-03T02:38:42;100326.69;;;18.58;74.33
31717;BME280;18301;51.076;17.046;2022-08-03T02:43:47;100333.34;;;18.55;74.58
31717;BME280;18301;51.076;17.046;2022-08-03T02:49:09;100337.44;;;18.51;74.59
31717;BME280;18301;51.076;17.046;2022-08-03T02:54:33;100337.78;;;18.56;74.63
31717;BME280;18301;51.076;17.046;2022-08-03T02:59:37;100343.94;;;18.58;74.92
31717;BME280;18301;51.076;17.046;2022-08-03T03:04:42;100353.16;;;18.57;74.80
31717;BME280;18301;51.076;17.046;2022-08-03T03:10:05;100347.38;;;18.60;75.02
31717;BME280;18301;51.076;17.046;2022-08-03T03:15:07;100345.31;;;18.62;74.83
31717;BME280;18301;51.076;17.046;2022-08-03T03:20:10;100341.88;;;18.52;75.22
31717;BME280;18301;51.076;17.046;2022-08-03T03:25:12;100346.84;;;18.57;75.03
31717;BME280;18301;51.076;17.046;2022-08-03T03:30:14;100352.16;;;18.67;74.85
31717;BME280;18301;51.076;17.046;2022-08-03T03:35:15;100351.66;;;18.63;75.71
31717;BME280;18301;51.076;17.046;2022-08-03T03:40:17;100353.69;;;18.61;74.96
31717;BME280;18301;51.076;17.046;2022-08-03T03:45:20;100354.88;;;18.58;75.31
31717;BME280;18301;51.076;17.046;2022-08-03T03:50:22;100352.28;;;18.49;75.70
31717;BME280;18301;51.076;17.046;2022-08-03T03:55:24;100351.44;;;18.56;75.73
31717;BME280;18301;51.076;17.046;2022-08-03T04:00:26;100364.75;;;18.59;75.60
31717;BME280;18301;51.076;17.046;2022-08-03T04:05:28;100356.06;;;18.56;75.83
31717;BME280;18301;51.076;17.046;2022-08-03T04:16:15;100358.69;;;18.74;75.29
31717;BME280;18301;51.076;17.046;2022-08-03T04:21:20;100360.41;;;18.75;75.41
31717;BME280;18301;51.076;17.046;2022-08-03T04:26:24;100367.94;;;18.73;75.59
31717;BME280;18301;51.076;17.046;2022-08-03T04:31:28;100369.28;;;18.77;75.66
31717;BME280;18301;51.076;17.046;2022-08-03T04:36:32;100366.34;;;18.70;75.89
31717;BME280;18301;51.076;17.046;2022-08-03T04:41:38;100377.09;;;18.72;75.93
31717;BME280;18301;51.076;17.046;2022-08-03T04:47:01;100381.09;;;18.77;76.37
31717;BME280;18301;51.076;17.046;2022-08-03T04:52:04;100392.03;;;18.77;76.26
31717;BME280;18301;51.076;17.046;2022-08-03T04:57:05;100383.59;;;18.71;76.77
31717;BME280;18301;51.076;17.046;2022-08-03T05:02:09;100383.66;;;18.79;76.84
31717;BME280;18301;51.076;17.046;2022-08-03T05:07:12;100386.41;;;18.87;76.67
31717;BME280;18301;51.076;17.046;2022-08-03T05:12:14;100373.75;;;18.86;76.78
31717;BME280;18301;51.076;17.046;2022-08-03T05:17:16;100374.47;;;18.88;77.38
31717;BME280;18301;51.076;17.046;2022-08-03T05:22:17;100371.41;;;19.07;77.32
31717;BME280;18301;51.076;17.046;2022-08-03T05:27:19;100372.63;;;19.46;76.75
31717;BME280;18301;51.076;17.046;2022-08-03T05:32:20;100377.75;;;19.57;76.09
31717;BME280;18301;51.076;17.046;2022-08-03T05:37:22;100378.28;;;19.52;76.07
31717;BME280;18301;51.076;17.046;2022-08-03T05:42:24;100387.69;;;19.74;76.16
31717;BME280;18301;51.076;17.046;2022-08-03T05:47:26;100392.97;;;19.92;75.70
31717;BME280;18301;51.076;17.046;2022-08-03T05:52:27;100396.31;;;20.19;75.79
31717;BME280;18301;51.076;17.046;2022-08-03T05:57:29;100397.06;;;20.60;75.09
31717;BME280;18301;51.076;17.046;2022-08-03T06:02:31;100395.03;;;20.85;74.12
31717;BME280;18301;51.076;17.046;2022-08-03T06:07:32;100397.00;;;21.00;73.20
31717;BME280;18301;51.076;17.046;2022-08-03T06:12:34;100395.13;;;21.23;72.90
31717;BME280;18301;51.076;17.046;2022-08-03T06:17:52;100405.91;;;21.56;71.77
31717;BME280;18301;51.076;17.046;2022-08-03T06:22:53;100402.44;;;21.92;70.75
31717;BME280;18301;51.076;17.046;2022-08-03T06:28:01;100395.97;;;22.37;70.37
31717;BME280;18301;51.076;17.046;2022-08-03T06:33:05;100396.03;;;22.73;69.50
31717;BME280;18301;51.076;17.046;2022-08-03T06:38:08;100397.81;;;22.96;67.50
31717;BME280;18301;51.076;17.046;2022-08-03T06:43:10;100410.97;;;23.15;66.93
31717;BME280;18301;51.076;17.046;2022-08-03T06:48:13;100408.41;;;23.35;66.17
31717;BME280;18301;51.076;17.046;2022-08-03T06:53:15;100407.09;;;23.74;66.23
31717;BME280;18301;51.076;17.046;2022-08-03T06:58:21;100404.09;;;23.97;64.75
31717;BME280;18301;51.076;17.046;2022-08-03T07:03:23;100409.75;;;24.17;63.90
31717;BME280;18301;51.076;17.046;2022-08-03T07:08:25;100395.53;;;24.48;64.08
31717;BME280;18301;51.076;17.046;2022-08-03T07:13:34;100405.00;;;24.74;62.72
31717;BME280;18301;51.076;17.046;2022-08-03T07:18:39;100397.41;;;24.89;62.84
31717;BME280;18301;51.076;17.046;2022-08-03T07:23:41;100400.44;;;25.08;61.67
31717;BME280;18301;51.076;17.046;2022-08-03T07:28:42;100403.25;;;25.14;61.15
31717;BME280;18301;51.076;17.046;2022-08-03T07:33:44;100399.91;;;25.39;60.97
31717;BME280;18301;51.076;17.046;2022-08-03T07:38:46;100402.69;;;25.72;60.34
31717;BME280;18301;51.076;17.046;2022-08-03T07:43:48;100400.38;;;25.82;60.47
31717;BME280;18301;51.076;17.046;2022-08-03T07:48:49;100405.47;;;26.12;58.41
31717;BME280;18301;51.076;17.046;2022-08-03T07:53:51;100396.94;;;26.27;58.22
31717;BME280;18301;51.076;17.046;2022-08-03T07:58:54;100394.94;;;26.54;56.95
31717;BME280;18301;51.076;17.046;2022-08-03T08:03:56;100395.34;;;26.64;56.04
31717;BME280;18301;51.076;17.046;2022-08-03T08:08:57;100397.38;;;26.89;56.02
31717;BME280;18301;51.076;17.046;2022-08-03T08:14:02;100395.09;;;27.17;54.25
31717;BME280;18301;51.076;17.046;2022-08-03T08:19:04;100407.38;;;27.35;53.19
31717;BME280;18301;51.076;17.046;2022-08-03T08:24:05;100394.94;;;27.44;52.23
31717;BME280;18301;51.076;17.046;2022-08-03T08:29:18;100401.97;;;27.71;51.71
31717;BME280;18301;51.076;17.046;2022-08-03T08:34:23;100397.44;;;27.84;51.09
31717;BME280;18301;51.076;17.046;2022-08-03T08:39:25;100394.97;;;27.94;50.60
31717;BME280;18301;51.076;17.046;2022-08-03T08:44:28;100396.38;;;28.03;49.70
31717;BME280;18301;51.076;17.046;2022-08-03T08:49:31;100388.56;;;28.18;49.53
31717;BME280;18301;51.076;17.046;2022-08-03T08:54:35;100386.63;;;28.19;48.44
31717;BME280;18301;51.076;17.046;2022-08-03T08:59:37;100388.78;;;28.35;48.49
31717;BME280;18301;51.076;17.046;2022-08-03T09:04:50;100381.97;;;28.56;48.13
31717;BME280;18301;51.076;17.046;2022-08-03T09:09:52;100389.44;;;28.74;45.16
31717;BME280;18301;51.076;17.046;2022-08-03T09:15:27;100384.50;;;28.76;46.94
31717;BME280;18301;51.076;17.046;2022-08-03T09:20:31;100384.06;;;28.91;46.90
31717;BME280;18301;51.076;17.046;2022-08-03T09:30:38;100375.19;;;29.19;45.34
31717;BME280;18301;51.076;17.046;2022-08-03T09:35:46;100372.88;;;29.28;45.83
31717;BME280;18301;51.076;17.046;2022-08-03T09:40:55;100372.69;;;29.41;45.73
31717;BME280;18301;51.076;17.046;2022-08-03T09:46:02;100381.78;;;29.60;43.30
31717;BME280;18301;51.076;17.046;2022-08-03T09:51:21;100373.31;;;29.55;45.17
31717;BME280;18301;51.076;17.046;2022-08-03T10:03:16;100367.22;;;29.76;43.51
31717;BME280;18301;51.076;17.046;2022-08-03T10:08:19;100363.25;;;29.84;41.49
31717;BME280;18301;51.076;17.046;2022-08-03T10:13:21;100363.59;;;29.88;42.02
31717;BME280;18301;51.076;17.046;2022-08-03T10:18:23;100358.66;;;29.90;42.51
31717;BME280;18301;51.076;17.046;2022-08-03T10:23:25;100353.53;;;29.98;41.67
31717;BME280;18301;51.076;17.046;2022-08-03T10:28:36;100349.56;;;29.94;41.13
31717;BME280;18301;51.076;17.046;2022-08-03T10:33:48;100351.00;;;30.09;42.11
31717;BME280;18301;51.076;17.046;2022-08-03T10:38:53;100341.81;;;30.20;41.78
31717;BME280;18301;51.076;17.046;2022-08-03T10:44:32;100336.50;;;30.30;41.69
31717;BME280;18301;51.076;17.046;2022-08-03T10:49:38;100340.59;;;30.39;41.86
31717;BME280;18301;51.076;17.046;2022-08-03T10:54:44;100342.56;;;30.27;41.80
31717;BME280;18301;51.076;17.046;2022-08-03T11:00:19;100349.31;;;30.08;40.58
31717;BME280;18301;51.076;17.046;2022-08-03T11:05:25;100336.38;;;30.25;40.55
31717;BME280;18301;51.076;17.046;2022-08-03T11:10:29;100330.78;;;30.37;38.82
31717;BME280;18301;51.076;17.046;2022-08-03T11:15:33;100323.50;;;30.36;40.38
31717;BME280;18301;51.076;17.046;2022-08-03T11:20:49;100321.19;;;30.44;40.16
31717;BME280;18301;51.076;17.046;2022-08-03T11:31:45;100317.81;;;30.42;38.56
31717;BME280;18301;51.076;17.046;2022-08-03T11:37:32;100313.94;;;30.43;39.53
31717;BME280;18301;51.076;17.046;2022-08-03T11:47:39;100320.03;;;30.69;38.16
31717;BME280;18301;51.076;17.046;2022-08-03T11:52:51;100313.88;;;30.67;39.15
31717;BME280;18301;51.076;17.046;2022-08-03T11:57:58;100305.91;;;30.59;37.39
31717;BME280;18301;51.076;17.046;2022-08-03T12:03:38;100288.81;;;30.67;38.42
31717;BME280;18301;51.076;17.046;2022-08-03T12:08:41;100289.88;;;30.66;37.75
31717;BME280;18301;51.076;17.046;2022-08-03T12:13:46;100294.56;;;30.48;37.77
31717;BME280;18301;51.076;17.046;2022-08-03T12:19:07;100280.84;;;30.59;38.59
31717;BME280;18301;51.076;17.046;2022-08-03T12:24:23;100284.41;;;30.71;38.40
31717;BME280;18301;51.076;17.046;2022-08-03T12:29:28;100272.44;;;30.70;38.06
31717;BME280;18301;51.076;17.046;2022-08-03T12:34:46;100268.59;;;30.60;37.34
31717;BME280;18301;51.076;17.046;2022-08-03T12:39:51;100266.31;;;30.57;36.32
31717;BME280;18301;51.076;17.046;2022-08-03T12:45:26;100271.09;;;30.73;37.16
31717;BME280;18301;51.076;17.046;2022-08-03T12:50:29;100267.44;;;30.72;37.07
31717;BME280;18301;51.076;17.046;2022-08-03T12:55:32;100263.09;;;30.77;36.13
31717;BME280;18301;51.076;17.046;2022-08-03T13:00:54;100260.53;;;30.75;37.14
31717;BME280;18301;51.076;17.046;2022-08-03T13:05:56;100265.84;;;30.88;37.38
31717;BME280;18301;51.076;17.046;2022-08-03T13:10:58;100260.41;;;30.82;36.39
31717;BME280;18301;51.076;17.046;2022-08-03T13:16:01;100264.63;;;30.84;36.24
31717;BME280;18301;51.076;17.046;2022-08-03T13:21:02;100263.97;;;30.94;35.88
31717;BME280;18301;51.076;17.046;2022-08-03T13:26:04;100261.94;;;30.89;34.91
31717;BME280;18301;51.076;17.046;2022-08-03T13:31:06;100258.41;;;30.94;36.99
31717;BME280;18301;51.076;17.046;2022-08-03T13:36:08;100251.91;;;31.05;35.57
31717;BME280;18301;51.076;17.046;2022-08-03T13:41:09;100254.50;;;30.78;36.31
31717;BME280;18301;51.076;17.046;2022-08-03T13:46:17;100254.59;;;30.83;35.85
31717;BME280;18301;51.076;17.046;2022-08-03T13:51:18;100253.50;;;30.84;36.06
31717;BME280;18301;51.076;17.046;2022-08-03T13:56:23;100250.09;;;30.54;36.54
31717;BME280;18301;51.076;17.046;2022-08-03T14:01:25;100243.56;;;30.48;35.77
31717;BME280;18301;51.076;17.046;2022-08-03T14:06:47;100239.56;;;30.56;36.28
31717;BME280;18301;51.076;17.046;2022-08-03T14:11:49;100224.13;;;30.65;35.91
31717;BME280;18301;51.076;17.046;2022-08-03T14:17:09;100228.34;;;30.79;35.74
31717;BME280;18301;51.076;17.046;2022-08-03T14:22:15;100226.53;;;30.73;36.14
31717;BME280;18301;51.076;17.046;2022-08-03T14:27:17;100226.63;;;30.78;35.67
31717;BME280;18301;51.076;17.046;2022-08-03T14:32:18;100222.78;;;30.79;35.27
31717;BME280;18301;51.076;17.046;2022-08-03T14:37:20;100220.69;;;30.74;35.91
31717;BME280;18301;51.076;17.046;2022-08-03T14:42:25;100218.88;;;30.80;35.32
31717;BME280;18301;51.076;17.046;2022-08-03T14:47:26;100214.50;;;30.72;35.89
31717;BME280;18301;51.076;17.046;2022-08-03T14:52:29;100213.31;;;30.80;35.98
31717;BME280;18301;51.076;17.046;2022-08-03T14:57:30;100202.63;;;30.77;35.64
31717;BME280;18301;51.076;17.046;2022-08-03T15:02:32;100204.09;;;30.80;35.53
31717;BME280;18301;51.076;17.046;2022-08-03T15:07:34;100205.06;;;30.85;35.09
31717;BME280;18301;51.076;17.046;2022-08-03T15:12:35;100194.28;;;30.77;35.77
31717;BME280;18301;51.076;17.046;2022-08-03T15:17:37;100189.81;;;30.76;35.73
31717;BME280;18301;51.076;17.046;2022-08-03T15:22:43;100192.16;;;30.67;35.85
31717;BME280;18301;51.076;17.046;2022-08-03T15:27:44;100193.06;;;30.56;35.26
31717;BME280;18301;51.076;17.046;2022-08-03T15:33:04;100182.69;;;30.52;35.97
31717;BME280;18301;51.076;17.046;2022-08-03T15:38:06;100184.69;;;30.39;36.49
31717;BME280;18301;51.076;17.046;2022-08-03T15:43:10;100176.13;;;30.29;36.82
31717;BME280;18301;51.076;17.046;2022-08-03T15:48:11;100180.69;;;30.35;36.11
31717;BME280;18301;51.076;17.046;2022-08-03T15:53:13;100175.03;;;30.30;36.28
31717;BME280;18301;51.076;17.046;2022-08-03T15:58:14;100179.41;;;30.26;36.06
31717;BME280;18301;51.076;17.046;2022-08-03T16:03:36;100167.91;;;30.22;36.22
31717;BME280;18301;51.076;17.046;2022-08-03T16:08:38;100169.25;;;30.20;36.28
31717;BME280;18301;51.076;17.046;2022-08-03T16:13:40;100169.41;;;30.01;35.87
31717;BME280;18301;51.076;17.046;2022-08-03T16:19:02;100156.78;;;29.82;36.93
31717;BME280;18301;51.076;17.046;2022-08-03T16:24:06;100154.78;;;29.66;35.95
31717;BME280;18301;51.076;17.046;2022-08-03T16:29:15;100151.97;;;29.54;36.97
31717;BME280;18301;51.076;17.046;2022-08-03T16:34:24;100153.78;;;29.48;37.34
31717;BME280;18301;51.076;17.046;2022-08-03T16:39:25;100151.38;;;29.52;37.59
31717;BME280;18301;51.076;17.046;2022-08-03T16:44:28;100145.94;;;29.45;37.16
31717;BME280;18301;51.076;17.046;2022-08-03T16:49:31;100149.94;;;29.38;37.96
31717;BME280;18301;51.076;17.046;2022-08-03T16:54:53;100155.03;;;29.29;38.56
31717;BME280;18301;51.076;17.046;2022-08-03T16:59:55;100157.31;;;29.20;39.15
31717;BME280;18301;51.076;17.046;2022-08-03T17:04:58;100157.44;;;29.13;38.25
31717;BME280;18301;51.076;17.046;2022-08-03T17:10:01;100167.22;;;29.04;38.53
31717;BME280;18301;51.076;17.046;2022-08-03T17:15:03;100169.84;;;28.99;38.58
31717;BME280;18301;51.076;17.046;2022-08-03T17:20:13;100167.88;;;28.88;38.43
31717;BME280;18301;51.076;17.046;2022-08-03T17:25:18;100169.94;;;28.81;39.29
31717;BME280;18301;51.076;17.046;2022-08-03T17:30:41;100171.84;;;28.68;38.97
31717;BME280;18301;51.076;17.046;2022-08-03T17:36:04;100186.19;;;28.65;39.33
31717;BME280;18301;51.076;17.046;2022-08-03T17:41:06;100180.38;;;28.55;39.55
31717;BME280;18301;51.076;17.046;2022-08-03T17:46:12;100183.50;;;28.47;40.21
31717;BME280;18301;51.076;17.046;2022-08-03T17:51:24;100190.41;;;28.38;40.37
31717;BME280;18301;51.076;17.046;2022-08-03T17:56:38;100188.00;;;28.30;40.52
31717;BME280;18301;51.076;17.046;2022-08-03T18:01:54;100188.63;;;28.13;41.18
31717;BME280;18301;51.076;17.046;2022-08-03T18:07:50;100191.34;;;28.02;41.75
31717;BME280;18301;51.076;17.046;2022-08-03T18:13:05;100188.53;;;27.90;42.26
31717;BME280;18301;51.076;17.046;2022-08-03T18:18:13;100192.91;;;27.79;42.71
31717;BME280;18301;51.076;17.046;2022-08-03T18:23:16;100196.88;;;27.65;43.19
31717;BME280;18301;51.076;17.046;2022-08-03T18:28:37;100196.63;;;27.48;43.76
31717;BME280;18301;51.076;17.046;2022-08-03T18:33:40;100202.78;;;27.31;44.27
31717;BME280;18301;51.076;17.046;2022-08-03T18:39:03;100208.88;;;27.15;45.12
31717;BME280;18301;51.076;17.046;2022-08-03T18:44:05;100210.06;;;27.01;45.41
31717;BME280;18301;51.076;17.046;2022-08-03T18:55:07;100212.50;;;26.84;45.44
31717;BME280;18301;51.076;17.046;2022-08-03T19:00:21;100220.69;;;26.72;46.28
31717;BME280;18301;51.076;17.046;2022-08-03T19:06:11;100220.97;;;26.64;46.33
31717;BME280;18301;51.076;17.046;2022-08-03T19:11:39;100224.88;;;26.50;46.41
31717;BME280;18301;51.076;17.046;2022-08-03T19:17:08;100228.50;;;26.44;46.64
31717;BME280;18301;51.076;17.046;2022-08-03T19:22:12;100225.59;;;26.32;46.80
31717;BME280;18301;51.076;17.046;2022-08-03T19:27:17;100227.94;;;26.28;46.73
31717;BME280;18301;51.076;17.046;2022-08-03T19:32:29;100224.38;;;26.21;47.93
31717;BME280;18301;51.076;17.046;2022-08-03T19:37:32;100232.06;;;26.12;47.22
31717;BME280;18301;51.076;17.046;2022-08-03T19:42:44;100221.47;;;26.03;47.51
31717;BME280;18301;51.076;17.046;2022-08-03T19:47:55;100221.53;;;25.89;47.38
31717;BME280;18301;51.076;17.046;2022-08-03T19:53:02;100232.59;;;25.83;47.57
31717;BME280;18301;51.076;17.046;2022-08-03T19:58:06;100235.59;;;25.81;47.73
31717;BME280;18301;51.076;17.046;2022-08-03T20:03:17;100237.69;;;25.79;47.59
31717;BME280;18301;51.076;17.046;2022-08-03T20:08:24;100240.06;;;25.69;47.70
31717;BME280;18301;51.076;17.046;2022-08-03T20:13:29;100236.88;;;25.65;48.06
31717;BME280;18301;51.076;17.046;2022-08-03T20:18:39;100234.56;;;25.56;47.86
31717;BME280;18301;51.076;17.046;2022-08-03T20:23:43;100233.94;;;25.47;47.99
31717;BME280;18301;51.076;17.046;2022-08-03T20:29:08;100244.56;;;25.37;48.21
31717;BME280;18301;51.076;17.046;2022-08-03T20:34:10;100250.50;;;25.34;48.13
31717;BME280;18301;51.076;17.046;2022-08-03T20:39:17;100260.28;;;25.30;48.73
31717;BME280;18301;51.076;17.046;2022-08-03T20:44:19;100250.94;;;25.17;49.14
31717;BME280;18301;51.076;17.046;2022-08-03T20:49:26;100253.25;;;25.07;49.33
31717;BME280;18301;51.076;17.046;2022-08-03T20:54:31;100251.34;;;24.94;49.44
31717;BME280;18301;51.076;17.046;2022-08-03T20:59:34;100254.72;;;24.83;49.94
31717;BME280;18301;51.076;17.046;2022-08-03T21:04:51;100250.03;;;24.70;50.46
31717;BME280;18301;51.076;17.046;2022-08-03T21:09:55;100252.34;;;24.67;50.54
31717;BME280;18301;51.076;17.046;2022-08-03T21:15:04;100247.47;;;24.69;50.39
31717;BME280;18301;51.076;17.046;2022-08-03T21:20:09;100251.72;;;24.65;50.45
31717;BME280;18301;51.076;17.046;2022-08-03T21:25:14;100249.78;;;24.58;50.14
31717;BME280;18301;51.076;17.046;2022-08-03T21:30:16;100252.72;;;24.44;51.30
31717;BME280;18301;51.076;17.046;2022-08-03T21:35:19;100251.13;;;24.28;51.34
31717;BME280;18301;51.076;17.046;2022-08-03T21:40:21;100249.44;;;24.20;51.87
31717;BME280;18301;51.076;17.046;2022-08-03T21:45:23;100260.38;;;24.07;52.35
31717;BME280;18301;51.076;17.046;2022-08-03T21:50:25;100253.59;;;24.03;52.58
31717;BME280;18301;51.076;17.046;2022-08-03T21:55:27;100259.91;;;23.97;52.60
31717;BME280;18301;51.076;17.046;2022-08-03T22:00:29;100256.09;;;23.98;52.40
31717;BME280;18301;51.076;17.046;2022-08-03T22:05:31;100257.34;;;23.95;52.21
31717;BME280;18301;51.076;17.046;2022-08-03T22:10:45;100250.78;;;23.89;52.54
31717;BME280;18301;51.076;17.046;2022-08-03T22:15:47;100252.66;;;23.89;52.55
31717;BME280;18301;51.076;17.046;2022-08-03T22:20:50;100255.81;;;23.86;52.54
31717;BME280;18301;51.076;17.046;2022-08-03T22:25:55;100249.44;;;23.79;52.48
31717;BME280;18301;51.076;17.046;2022-08-03T22:30:57;100248.31;;;23.73;52.74
31717;BME280;18301;51.076;17.046;2022-08-03T22:36:22;100248.25;;;23.66;52.54
31717;BME280;18301;51.076;17.046;2022-08-03T22:41:27;100259.28;;;23.66;52.80
31717;BME280;18301;51.076;17.046;2022-08-03T22:46:31;100252.44;;;23.56;53.80
31717;BME280;18301;51.076;17.046;2022-08-03T22:51:34;100253.25;;;23.50;53.48
31717;BME280;18301;51.076;17.046;2022-08-03T22:56:37;100249.56;;;23.42;53.79
31717;BME280;18301;51.076;17.046;2022-08-03T23:01:41;100246.38;;;23.39;53.88
31717;BME280;18301;51.076;17.046;2022-08-03T23:06:44;100246.94;;;23.28;53.88
31717;BME280;18301;51.076;17.046;2022-08-03T23:11:48;100252.19;;;23.23;54.30
31717;BME280;18301;51.076;17.046;2022-08-03T23:16:51;100256.16;;;23.13;54.67
31717;BME280;18301;51.076;17.046;2022-08-03T23:21:55;100249.91;;;23.05;55.02
31717;BME280;18301;51.076;17.046;2022-08-03T23:27:06;100257.47;;;22.96;55.44
31717;BME280;18301;51.076;17.046;2022-08-03T23:32:08;100255.75;;;22.95;55.50
31717;BME280;18301;51.076;17.046;2022-08-03T23:37:12;100257.38;;;22.89;55.54
31717;BME280;18301;51.076;17.046;2022-08-03T23:42:17;100265.69;;;22.74;55.74
31717;BME280;18301;51.076;17.046;2022-08-03T23:47:19;100269.50;;;22.73;55.74
31717;BME280;18301;51.076;17.046;2022-08-03T23:52:27;100273.69;;;22.69;55.98
31717;BME280;18301;51.076;17.046;2022-08-03T23:58:03;100259.66;;;22.64;56.16
